< < Back
Terminal Aerodrome Forecast


Current Version              Previous Versions:   1  2  3  4  5  6  7  8  9  

Terminal Aerodrome Forecast

578
FTUS44 KBMX 290500
TAFTCL
TAF
KTCL 290522Z 2906/3006 32003KT P6SM SKC
     FM291500 34010KT P6SM SKC=



Latest METAR

327
SAUS70 KWBC 291000 RRH
MTRTCL
METAR KTCL 290953Z AUTO 00000KT 10SM CLR 18/17 A3001 RMK AO2 SLP158
T01830167


USA.gov is the U.S. government's official web portal to all federal, state and local government web resources and services.